LIBR/BDS METAR and TAF weather

Enter ICAO airport designator
Station Type Date Time Source
LIBR METAR 2022/12/08 12:20 UTC NOAA

LIBR 081220Z 21010KT CAVOK 18/12 Q1012


Station Type Date Time Source
LIBR Decoded METAR 2022/12/08 12:20 UTC NOAA

Brindisi, Italy (LIBR) 40-39N 017-57E 10M
Dec 08, 2022 - 07:20 AM EST / 2022.12.08 1220 UTC
Wind: from the SSW (210 degrees) at 12 MPH (10 KT):0
Visibility: greater than 7 mile(s):0
Temperature: 64 F (18 C)
Dew Point: 53 F (12 C)
Relative Humidity: 67%
Pressure (altimeter): 29.88 in. Hg (1012 hPa)
ob: LIBR 081220Z 21010KT CAVOK 18/12 Q1012
cycle: 12

Station Type Date Time Source
LIBR TAF 2022/12/08 12:23 UTC NOAA

TAF LIBR 081100Z 0812/0912 20008KT 9999 FEW020
TEMPO 0820/0906 0600 FG BKN005

Example: see airport list